createdAt,value
2022-12-04T00:00:53.542Z,96416.00
2022-12-04T00:03:55.709Z,96424.38
2022-12-04T00:06:58.909Z,96420.81
2022-12-04T00:09:56.607Z,96417.84
2022-12-04T00:12:53.970Z,96419.00
2022-12-04T00:15:50.955Z,96418.19
2022-12-04T00:18:48.158Z,96406.66
2022-12-04T00:21:45.425Z,96422.97
2022-12-04T00:24:42.396Z,96415.56
2022-12-04T00:27:39.353Z,96398.78
2022-12-04T00:30:41.453Z,96406.53
2022-12-04T00:33:38.575Z,96404.59
2022-12-04T00:36:35.521Z,96404.94
2022-12-04T00:39:32.465Z,96401.16
2022-12-04T00:42:29.452Z,96391.81
2022-12-04T00:45:26.545Z,96396.25
2022-12-04T00:48:23.954Z,96396.25
2022-12-04T00:51:24.820Z,96405.72
2022-12-04T00:54:21.653Z,96400.91
2022-12-04T00:57:18.518Z,96400.44
2022-12-04T01:00:16.041Z,96395.78
2022-12-04T01:03:12.999Z,96389.13
2022-12-04T01:06:24.754Z,96396.91
2022-12-04T01:09:21.695Z,96392.25
2022-12-04T01:12:20.945Z,96382.53
2022-12-04T01:15:18.096Z,96390.22
2022-12-04T01:18:16.142Z,96387.56
2022-12-04T01:21:13.218Z,96388.69
2022-12-04T01:24:10.065Z,96392.84
2022-12-04T01:27:07.037Z,96378.31
2022-12-04T01:30:04.995Z,96382.09
2022-12-04T01:33:01.842Z,96384.78
2022-12-04T01:36:00.709Z,96383.56
2022-12-04T01:38:57.557Z,96387.41
2022-12-04T01:41:54.380Z,96376.59
2022-12-04T01:45:38.383Z,96377.72
2022-12-04T01:48:48.653Z,96383.44
2022-12-04T01:51:54.877Z,96375.06
2022-12-04T01:54:59.085Z,96384.00
2022-12-04T01:57:57.002Z,96375.66
2022-12-04T02:01:00.744Z,96369.97
2022-12-04T02:04:01.928Z,96377.34
2022-12-04T02:06:58.843Z,96362.84
2022-12-04T02:09:56.391Z,96365.94
2022-12-04T02:13:07.047Z,96374.84
2022-12-04T02:16:37.220Z,96368.66
2022-12-04T02:20:33.166Z,96366.03
2022-12-04T02:23:51.128Z,96363.88
2022-12-04T02:26:56.859Z,96359.19
2022-12-04T02:30:04.156Z,96369.00
2022-12-04T02:33:45.444Z,96381.31
2022-12-04T02:36:58.072Z,96371.72
2022-12-04T02:40:22.073Z,96375.06
2022-12-04T02:43:37.869Z,96371.03
2022-12-04T02:46:45.712Z,96372.09
2022-12-04T02:49:57.420Z,96369.69
2022-12-04T02:53:04.571Z,96375.75
2022-12-04T02:56:16.601Z,96366.78
2022-12-04T02:59:21.000Z,96355.63
2022-12-04T03:02:23.693Z,96347.00
2022-12-04T03:05:27.755Z,96344.31
2022-12-04T03:08:42.227Z,96343.44
2022-12-04T03:11:44.145Z,96334.59
2022-12-04T03:14:51.721Z,96331.97
2022-12-04T03:18:06.159Z,96350.00
2022-12-04T03:21:22.916Z,96335.19
2022-12-04T03:24:34.450Z,96339.22
2022-12-04T03:27:46.203Z,96341.63
2022-12-04T03:30:52.861Z,96334.53
2022-12-04T03:33:52.662Z,96352.03
2022-12-04T03:36:58.869Z,96353.63
2022-12-04T03:40:15.431Z,96351.59
2022-12-04T03:43:40.871Z,96360.25
2022-12-04T03:47:00.290Z,96359.47
2022-12-04T03:50:14.555Z,96340.81
2022-12-04T03:53:38.627Z,96337.84
2022-12-04T03:56:43.276Z,96345.28
2022-12-04T03:59:58.910Z,96339.22
2022-12-04T04:03:20.705Z,96352.94
2022-12-04T04:06:31.788Z,96345.28
2022-12-04T04:09:36.663Z,96347.69
2022-12-04T04:12:41.206Z,96348.00
2022-12-04T04:16:03.799Z,96352.56
2022-12-04T04:19:21.252Z,96344.25
2022-12-04T04:22:38.802Z,96342.72
2022-12-04T04:25:40.397Z,96344.56
2022-12-04T04:28:40.358Z,96342.66
2022-12-04T04:31:42.261Z,96333.81
2022-12-04T04:35:03.303Z,96339.78
2022-12-04T04:38:21.740Z,96346.88
2022-12-04T04:41:46.830Z,96349.59
2022-12-04T04:45:13.654Z,96357.81
2022-12-04T04:48:19.598Z,96345.59
2022-12-04T04:51:17.302Z,96343.06
2022-12-04T04:54:16.640Z,96348.09
2022-12-04T04:57:13.539Z,96347.53
2022-12-04T05:00:22.767Z,96338.84
2022-12-04T05:03:19.626Z,96332.22
2022-12-04T05:06:16.492Z,96340.69
2022-12-04T05:09:13.633Z,96343.72
2022-12-04T05:12:10.710Z,96337.97
2022-12-04T05:15:08.450Z,96332.31
2022-12-04T05:18:05.508Z,96333.09
2022-12-04T05:21:16.265Z,96320.75
2022-12-04T05:24:13.092Z,96324.44
2022-12-04T05:27:09.912Z,96329.84
2022-12-04T05:30:07.622Z,96328.41
2022-12-04T05:33:04.587Z,96328.16
2022-12-04T05:36:08.486Z,96317.44
2022-12-04T05:39:05.343Z,96321.66
2022-12-04T05:42:02.189Z,96332.72
2022-12-04T05:44:59.050Z,96331.59
2022-12-04T05:47:55.872Z,96320.28
2022-12-04T05:50:52.706Z,96318.28
2022-12-04T05:53:52.081Z,96320.94
2022-12-04T05:56:49.039Z,96328.75
2022-12-04T05:59:45.848Z,96341.16
2022-12-04T06:02:42.859Z,96343.78
2022-12-04T06:05:39.815Z,96347.72
2022-12-04T06:08:36.621Z,96351.19
2022-12-04T06:11:39.435Z,96350.91
2022-12-04T06:14:39.560Z,96368.19
2022-12-04T06:17:36.782Z,96360.63
2022-12-04T06:20:34.091Z,96360.22
2022-12-04T06:23:30.995Z,96367.41
2022-12-04T06:26:28.496Z,96365.25
2022-12-04T06:29:25.622Z,96368.78
2022-12-04T06:32:22.582Z,96359.28
2022-12-04T06:35:19.433Z,96361.69
2022-12-04T06:38:16.293Z,96368.19
2022-12-04T06:41:16.572Z,96360.88
2022-12-04T06:44:15.484Z,96363.28
2022-12-04T06:47:12.423Z,96359.34
2022-12-04T06:50:09.729Z,96361.19
2022-12-04T06:53:08.439Z,96358.25
2022-12-04T06:56:10.198Z,96360.69
2022-12-04T06:59:07.013Z,96368.59
2022-12-04T07:02:03.981Z,96374.03
2022-12-04T07:05:00.913Z,96379.22
2022-12-04T07:07:57.862Z,96373.06
2022-12-04T07:10:59.201Z,96375.84
2022-12-04T07:14:00.085Z,96376.28
2022-12-04T07:16:56.947Z,96373.97
2022-12-04T07:19:54.314Z,96380.81
2022-12-04T07:22:51.455Z,96384.72
2022-12-04T07:25:48.316Z,96390.78
2022-12-04T07:28:45.433Z,96384.25
2022-12-04T07:31:44.324Z,96374.50
2022-12-04T07:34:41.438Z,96380.31
2022-12-04T07:37:38.289Z,96373.22
2022-12-04T07:40:37.416Z,96381.22
2022-12-04T07:43:34.490Z,96382.81
2022-12-04T07:46:31.521Z,96375.94
2022-12-04T07:49:28.422Z,96374.91
2022-12-04T07:52:25.267Z,96372.94
2022-12-04T07:55:23.369Z,96366.63
2022-12-04T07:58:20.436Z,96368.53
2022-12-04T08:01:21.837Z,96362.94
2022-12-04T08:04:18.775Z,96366.38
2022-12-04T08:07:16.055Z,96367.25
2022-12-04T08:10:13.365Z,96366.22
2022-12-04T08:13:10.336Z,96365.72
2022-12-04T08:16:09.941Z,96370.53
2022-12-04T08:19:06.908Z,96367.91
2022-12-04T08:22:03.986Z,96367.06
2022-12-04T08:25:00.868Z,96367.81
2022-12-04T08:27:57.825Z,96352.91
2022-12-04T08:30:55.197Z,96365.03
2022-12-04T08:33:56.893Z,96358.63
2022-12-04T08:36:53.748Z,96351.28
2022-12-04T08:39:50.629Z,96346.59
2022-12-04T08:42:47.488Z,96357.19
2022-12-04T08:45:44.372Z,96351.06
2022-12-04T08:48:41.763Z,96351.88
2022-12-04T08:51:39.517Z,96356.88
2022-12-04T08:54:36.495Z,96356.16
2022-12-04T08:57:33.405Z,96348.59
2022-12-04T09:00:33.614Z,96359.34
2022-12-04T09:03:31.177Z,96356.28
2022-12-04T09:06:28.249Z,96353.25
2022-12-04T09:09:25.067Z,96370.59
2022-12-04T09:12:21.878Z,96364.91
2022-12-04T09:15:18.831Z,96353.56
2022-12-04T09:18:15.652Z,96373.59
2022-12-04T09:21:15.566Z,96370.41
2022-12-04T09:24:12.484Z,96367.44
2022-12-04T09:27:14.444Z,96357.63
2022-12-04T09:30:13.426Z,96354.88
2022-12-04T09:33:10.348Z,96345.56
2022-12-04T09:36:07.640Z,96348.19
2022-12-04T09:39:04.535Z,96335.66
2022-12-04T09:42:25.406Z,96335.41
2022-12-04T09:45:26.195Z,96337.34
2022-12-04T09:48:34.348Z,96326.41
2022-12-04T09:51:35.096Z,96316.94
2022-12-04T09:54:39.785Z,96320.38
2022-12-04T09:58:00.037Z,96324.84
2022-12-04T10:01:00.911Z,96329.69
2022-12-04T10:04:04.294Z,96324.66
2022-12-04T10:07:31.540Z,96335.97
2022-12-04T10:10:44.621Z,96340.91
2022-12-04T10:14:10.661Z,96341.09
2022-12-04T10:17:46.642Z,96332.75
2022-12-04T10:20:51.801Z,96325.38
2022-12-04T10:23:56.794Z,96325.19
2022-12-04T10:26:57.667Z,96330.56
2022-12-04T10:30:16.633Z,96335.06
2022-12-04T10:33:41.183Z,96335.81
2022-12-04T10:36:39.840Z,96345.13
2022-12-04T10:40:12.647Z,96357.88
2022-12-04T10:43:47.211Z,96355.41
2022-12-04T10:46:46.232Z,96352.81
2022-12-04T10:49:43.404Z,96336.78
2022-12-04T10:52:40.345Z,96342.69
2022-12-04T10:55:38.306Z,96340.56
2022-12-04T10:58:35.199Z,96331.78
2022-12-04T11:01:35.206Z,96330.63
2022-12-04T11:04:35.436Z,96320.56
2022-12-04T11:07:45.310Z,96316.72
2022-12-04T11:10:43.942Z,96313.75
2022-12-04T11:13:41.330Z,96301.75
2022-12-04T11:16:44.713Z,96289.84
2022-12-04T11:19:41.701Z,96294.09
2022-12-04T11:22:57.277Z,96279.94
2022-12-04T11:26:03.687Z,96283.66
2022-12-04T11:29:05.230Z,96282.00
2022-12-04T11:32:07.835Z,96283.03
2022-12-04T11:35:14.639Z,96282.00
2022-12-04T11:38:17.766Z,96286.88
2022-12-04T11:41:33.010Z,96279.69
2022-12-04T11:44:33.872Z,96275.56
2022-12-04T11:47:33.037Z,96284.75
2022-12-04T11:50:38.339Z,96276.84
2022-12-04T11:53:50.341Z,96265.19
2022-12-04T11:57:05.028Z,96272.31
2022-12-04T12:00:21.471Z,96286.72
2022-12-04T12:03:37.846Z,96268.53
2022-12-04T12:07:16.634Z,96258.59
2022-12-04T12:11:03.465Z,96260.69
2022-12-04T12:14:25.828Z,96242.78
2022-12-04T12:17:39.791Z,96237.00
2022-12-04T12:21:05.621Z,96228.81
2022-12-04T12:24:29.822Z,96234.41
2022-12-04T12:27:39.509Z,96225.16
2022-12-04T12:31:05.558Z,96218.78
2022-12-04T12:34:14.380Z,96211.88
2022-12-04T12:37:18.877Z,96210.88
2022-12-04T12:40:39.808Z,96202.72
2022-12-04T12:43:39.621Z,96194.53
2022-12-04T12:47:13.193Z,96198.75
2022-12-04T12:50:21.200Z,96195.91
2022-12-04T12:53:24.917Z,96204.56
2022-12-04T13:00:04.393Z,96185.59
2022-12-04T13:03:26.190Z,96179.19
2022-12-04T13:06:35.272Z,96180.81
2022-12-04T13:09:37.449Z,96178.22
2022-12-04T13:13:02.236Z,96175.56
2022-12-04T13:16:17.192Z,96178.97
2022-12-04T13:19:20.639Z,96179.31
2022-12-04T13:22:58.669Z,96180.34
2022-12-04T13:26:32.979Z,96187.09
2022-12-04T13:29:56.576Z,96186.31
2022-12-04T13:33:26.206Z,96170.56
2022-12-04T13:36:53.759Z,96184.78
2022-12-04T13:40:28.332Z,96192.97
2022-12-04T13:43:40.446Z,96186.66
2022-12-04T13:46:50.013Z,96192.25
2022-12-04T13:49:46.957Z,96186.44
2022-12-04T13:52:43.875Z,96184.78
2022-12-04T13:55:41.058Z,96183.38
2022-12-04T13:58:38.055Z,96174.09
2022-12-04T14:01:45.712Z,96177.25
2022-12-04T14:05:06.112Z,96178.63
2022-12-04T14:08:28.253Z,96184.63
2022-12-04T14:11:26.835Z,96173.31
2022-12-04T14:14:33.369Z,96193.41
2022-12-04T14:17:40.240Z,96191.75
2022-12-04T14:20:38.325Z,96203.94
2022-12-04T14:23:40.124Z,96197.53
2022-12-04T14:30:05.718Z,96202.53
2022-12-04T14:33:16.313Z,96202.97
2022-12-04T14:36:24.836Z,96191.72
2022-12-04T14:39:27.851Z,96183.25
2022-12-04T14:42:32.054Z,96185.13
2022-12-04T14:45:59.592Z,96194.34
2022-12-04T14:49:36.884Z,96195.19
2022-12-04T14:52:45.377Z,96192.53
2022-12-04T14:56:14.714Z,96206.22
2022-12-04T14:59:22.081Z,96206.22
2022-12-04T15:02:43.386Z,96191.16
2022-12-04T15:05:40.980Z,96200.88
2022-12-04T15:08:53.611Z,96192.19
2022-12-04T15:12:12.791Z,96185.13
2022-12-04T15:15:27.229Z,96192.28
2022-12-04T15:18:24.441Z,96206.56
2022-12-04T15:21:23.439Z,96202.59
2022-12-04T15:24:23.227Z,96196.56
2022-12-04T15:27:28.937Z,96208.94
2022-12-04T15:30:30.757Z,96194.22
2022-12-04T15:33:34.389Z,96194.78
2022-12-04T15:37:06.299Z,96192.38
2022-12-04T15:40:08.449Z,96190.56
2022-12-04T15:43:17.059Z,96181.00
2022-12-04T15:46:21.931Z,96187.63
2022-12-04T15:49:25.944Z,96201.56
2022-12-04T15:52:24.562Z,96199.72
2022-12-04T15:55:24.371Z,96187.59
2022-12-04T15:58:39.913Z,96185.50
2022-12-04T16:01:40.682Z,96185.22
2022-12-04T16:04:42.462Z,96176.72
2022-12-04T16:07:58.517Z,96187.00
2022-12-04T16:11:04.676Z,96184.63
2022-12-04T16:14:19.609Z,96183.56
2022-12-04T16:17:16.491Z,96173.09
2022-12-04T16:20:14.058Z,96163.34
2022-12-04T16:23:13.808Z,96156.78
2022-12-04T16:26:16.734Z,96161.06
2022-12-04T16:29:13.560Z,96166.53
2022-12-04T16:32:17.550Z,96158.28
2022-12-04T16:35:17.104Z,96139.91
2022-12-04T16:38:17.640Z,96146.84
2022-12-04T16:41:17.067Z,96151.59
2022-12-04T16:44:17.172Z,96146.56
2022-12-04T16:47:15.197Z,96156.53
2022-12-04T16:50:12.092Z,96163.34
2022-12-04T16:53:19.555Z,96178.91
2022-12-04T16:56:16.754Z,96174.44
2022-12-04T16:59:13.692Z,96194.22
2022-12-04T17:02:22.935Z,96189.19
2022-12-04T17:05:23.348Z,96176.28
2022-12-04T17:08:20.697Z,96178.38
2022-12-04T17:11:18.418Z,96179.16
2022-12-04T17:14:15.300Z,96177.84
2022-12-04T17:17:12.151Z,96178.63
2022-12-04T17:20:15.278Z,96178.41
2022-12-04T17:23:13.409Z,96184.19
2022-12-04T17:26:14.785Z,96177.84
2022-12-04T17:29:11.682Z,96171.19
2022-12-04T17:32:08.525Z,96163.28
2022-12-04T17:35:08.064Z,96173.34
2022-12-04T17:38:06.347Z,96168.81
2022-12-04T17:41:04.700Z,96158.81
2022-12-04T17:44:01.689Z,96158.34
2022-12-04T17:46:59.110Z,96159.06
2022-12-04T17:49:56.071Z,96162.50
2022-12-04T17:52:53.253Z,96151.69
2022-12-04T17:55:51.113Z,96153.53
2022-12-04T17:58:48.199Z,96158.00
2022-12-04T18:01:45.103Z,96164.84
2022-12-04T18:04:42.480Z,96179.88
2022-12-04T18:07:39.660Z,96174.53
2022-12-04T18:10:38.303Z,96179.81
2022-12-04T18:13:35.240Z,96171.97
2022-12-04T18:16:36.296Z,96172.69
2022-12-04T18:19:33.215Z,96179.00
2022-12-04T18:22:30.024Z,96177.13
2022-12-04T18:25:26.966Z,96171.91
2022-12-04T18:28:24.333Z,96162.41
2022-12-04T18:31:22.086Z,96171.63
2022-12-04T18:34:19.706Z,96170.81
2022-12-04T18:37:16.658Z,96170.81
2022-12-04T18:40:14.614Z,96166.09
2022-12-04T18:43:15.275Z,96176.63
2022-12-04T18:46:15.603Z,96168.72
2022-12-04T18:49:12.903Z,96168.97
2022-12-04T18:52:09.752Z,96180.06
2022-12-04T18:55:06.988Z,96187.25
2022-12-04T18:58:04.313Z,96176.88
2022-12-04T19:01:14.435Z,96176.09
2022-12-04T19:04:14.196Z,96180.31
2022-12-04T19:07:11.041Z,96180.59
2022-12-04T19:10:20.776Z,96177.44
2022-12-04T19:13:17.663Z,96185.34
2022-12-04T19:16:17.715Z,96186.09
2022-12-04T19:19:15.625Z,96196.38
2022-12-04T19:22:13.197Z,96192.16
2022-12-04T19:25:10.042Z,96177.69
2022-12-04T19:28:06.962Z,96192.94
2022-12-04T19:31:04.224Z,96199.72
2022-12-04T19:34:01.908Z,96195.97
2022-12-04T19:36:59.115Z,96208.88
2022-12-04T19:39:56.474Z,96215.16
2022-12-04T19:42:59.519Z,96206.50
2022-12-04T19:45:59.543Z,96206.47
2022-12-04T19:49:03.187Z,96196.22
2022-12-04T19:52:00.068Z,96187.06
2022-12-04T19:54:56.885Z,96200.97
2022-12-04T19:57:53.698Z,96191.13
2022-12-04T20:00:54.444Z,96192.94
2022-12-04T20:03:51.349Z,96192.63
2022-12-04T20:06:48.201Z,96200.31
2022-12-04T20:09:51.977Z,96212.09
2022-12-04T20:12:52.254Z,96197.63
2022-12-04T20:15:49.126Z,96203.94
2022-12-04T20:18:46.488Z,96200.78
2022-12-04T20:21:44.533Z,96198.66
2022-12-04T20:24:41.398Z,96204.47
2022-12-04T20:27:38.614Z,96206.81
2022-12-04T20:30:35.529Z,96212.09
2022-12-04T20:33:32.359Z,96213.31
2022-12-04T20:36:31.338Z,96212.88
2022-12-04T20:39:28.226Z,96217.16
2022-12-04T20:42:30.204Z,96217.25
2022-12-04T20:45:30.876Z,96219.66
2022-12-04T20:48:28.227Z,96219.31
2022-12-04T20:51:30.056Z,96218.22
2022-12-04T20:54:26.867Z,96220.53
2022-12-04T20:57:23.777Z,96215.50
2022-12-04T21:00:20.620Z,96218.94
2022-12-04T21:03:17.469Z,96217.44
2022-12-04T21:06:19.939Z,96218.16
2022-12-04T21:09:24.562Z,96220.53
2022-12-04T21:12:44.198Z,96219.19
2022-12-04T21:15:59.675Z,96218.94
2022-12-04T21:18:56.488Z,96220.59
2022-12-04T21:21:54.324Z,96222.16
2022-12-04T21:24:51.130Z,96212.34
2022-12-04T21:27:47.972Z,96213.09
2022-12-04T21:30:44.867Z,96206.81
2022-12-04T21:33:41.740Z,96208.53
2022-12-04T21:36:38.946Z,96204.97
2022-12-04T21:39:36.938Z,96209.97
2022-12-04T21:42:34.546Z,96210.00
2022-12-04T21:45:31.352Z,96211.03
2022-12-04T21:48:30.446Z,96216.56
2022-12-04T21:51:55.596Z,96208.66
2022-12-04T21:54:48.018Z,96206.56
2022-12-04T21:57:44.852Z,96206.56
2022-12-04T22:00:41.685Z,96210.34
2022-12-04T22:03:38.604Z,96205.31
2022-12-04T22:06:36.385Z,96212.63
2022-12-04T22:09:33.478Z,96217.59
2022-12-04T22:15:47.154Z,96234.75
2022-12-04T22:18:44.257Z,96236.09
2022-12-04T22:21:41.923Z,96226.28
2022-12-04T22:24:38.738Z,96233.47
2022-12-04T22:27:35.650Z,96233.94
2022-12-04T22:30:34.256Z,96235.53
2022-12-04T22:33:31.333Z,96237.63
2022-12-04T22:36:32.052Z,96234.44
2022-12-04T22:39:28.854Z,96235.75
2022-12-04T22:42:25.677Z,96231.53
2022-12-04T22:45:22.485Z,96238.13
2022-12-04T22:48:20.320Z,96228.88
2022-12-04T22:51:22.317Z,96236.22
2022-12-04T22:54:19.141Z,96224.72
2022-12-04T22:57:16.487Z,96232.78
2022-12-04T23:00:13.908Z,96237.59
2022-12-04T23:03:10.886Z,96239.97
2022-12-04T23:06:09.229Z,96228.31
2022-12-04T23:09:11.500Z,96238.56
2022-12-04T23:12:08.367Z,96239.41
2022-12-04T23:15:05.997Z,96234.94
2022-12-04T23:18:02.901Z,96238.84
2022-12-04T23:21:10.020Z,96244.91
2022-12-04T23:24:07.488Z,96254.44
2022-12-04T23:27:04.783Z,96254.44
2022-12-04T23:30:01.590Z,96250.75
2022-12-04T23:32:58.425Z,96248.91
2022-12-04T23:36:02.560Z,96240.22
2022-12-04T23:38:59.431Z,96249.44
2022-12-04T23:41:56.279Z,96243.69
2022-12-04T23:44:53.120Z,96245.53
2022-12-04T23:47:49.995Z,96251.66
2022-12-04T23:50:46.792Z,96249.50
2022-12-04T23:53:44.685Z,96259.97
2022-12-04T23:56:41.532Z,96249.19
2022-12-04T23:59:38.526Z,96245.59
